Time;durP1;ratioP1;P1;durP2;ratioP2;P2;SDS_P1;SDS_P2;PMS_P1;PMS_P2;Temp;Humidity;BMP_temperature;BMP_pressure;BME280_temperature;BME280_humidity;BME280_pressure;Samples;Min_cycle;Max_cycle;Signal;HPM_P1;HPM_P2
2022/01/26 00:06:24;;;;;;;;;10.00;9.00;;;;;21.49;54.44;101776.51;110335;1268;22212;-67
2022/01/26 00:08:52;;;;;;;;;10.00;9.00;;;;;21.49;54.39;101770.79;110350;1268;21004;-67
2022/01/26 00:11:19;;;;;;;;;9.00;9.00;;;;;21.50;54.41;101770.14;110406;1268;18849;-67
2022/01/26 00:13:46;;;;;;;;;11.67;10.67;;;;;21.49;54.68;101766.29;110432;1268;19025;-67
2022/01/26 00:16:22;;;;;;;;;10.67;10.00;;;;;21.48;54.34;101760.20;110327;1267;28409;-67
2022/01/26 00:18:52;;;;;;;;;9.00;8.00;;;;;21.48;54.53;101759.45;110353;1268;22653;-67
2022/01/26 00:21:27;;;;;;;;;9.67;9.00;;;;;21.48;54.40;101757.69;110389;1268;18821;-67
2022/01/26 00:29:40;;;;;;;;;9.67;9.67;;;;;21.48;54.45;101754.61;109584;1273;24753;-68
2022/01/26 00:40:26;;;;;;;;;9.67;9.00;;;;;21.49;54.35;101754.86;109643;1269;17998;-66
2022/01/26 00:42:57;;;;;;;;;10.33;9.67;;;;;21.49;54.44;101759.02;110713;1266;18968;-67
2022/01/26 00:45:32;;;;;;;;;10.00;9.00;;;;;21.48;54.49;101756.90;110739;1268;19162;-68
2022/01/26 00:48:02;;;;;;;;;9.00;9.00;;;;;21.49;54.42;101754.52;110769;1267;18496;-67
2022/01/26 00:50:29;;;;;;;;;10.00;9.67;;;;;21.48;54.31;101753.45;110692;1267;18867;-67
2022/01/26 00:52:57;;;;;;;;;8.33;7.00;;;;;21.48;54.38;101753.25;110747;1267;18362;-67
2022/01/26 00:55:24;;;;;;;;;9.00;9.00;;;;;21.48;54.16;101747.80;110730;1266;18002;-67
2022/01/26 00:57:51;;;;;;;;;10.00;9.00;;;;;21.49;54.24;101751.76;110777;1262;19354;-67
2022/01/26 01:00:18;;;;;;;;;9.50;9.00;;;;;21.48;53.98;101753.48;110930;1262;18441;-68
2022/01/26 01:02:45;;;;;;;;;10.00;10.00;;;;;21.48;54.04;101753.52;110917;1262;18294;-68
2022/01/26 01:05:17;;;;;;;;;9.00;7.00;;;;;21.48;54.24;101755.63;110970;1262;19996;-68
2022/01/26 01:07:46;;;;;;;;;9.50;9.00;;;;;21.47;54.24;101749.39;110988;1262;21706;-68
2022/01/26 01:10:16;;;;;;;;;10.00;9.00;;;;;21.47;54.12;101744.70;110874;1262;17962;-68
2022/01/26 01:12:44;;;;;;;;;11.00;9.00;;;;;21.45;53.93;101736.30;110921;1262;22724;-67
2022/01/26 01:15:11;;;;;;;;;11.00;10.00;;;;;21.46;53.92;101740.55;110943;1261;18686;-67
2022/01/26 01:17:43;;;;;;;;;7.00;7.00;;;;;21.46;54.04;101740.77;110966;1261;18311;-67
2022/01/26 01:20:18;;;;;;;;;10.00;9.00;;;;;21.47;54.01;101741.61;110848;1261;18694;-67
2022/01/26 01:23:06;;;;;;;;;7.67;7.00;;;;;21.47;53.80;101735.81;110969;1262;18443;-69
2022/01/26 01:28:58;;;;;;;;;8.33;7.67;;;;;21.46;53.95;101735.64;110567;1267;21690;-68
2022/01/26 01:31:40;;;;;;;;;12.33;10.33;;;;;21.46;54.03;101732.55;110629;1267;18689;-66
2022/01/26 01:34:08;;;;;;;;;6.67;6.67;;;;;21.46;53.88;101729.63;110517;1267;22039;-66
2022/01/26 01:36:37;;;;;;;;;8.33;7.00;;;;;21.47;53.77;101731.27;110495;1266;18733;-67
2022/01/26 01:39:04;;;;;;;;;9.00;9.00;;;;;21.46;53.84;101733.29;110477;1267;18294;-67
2022/01/26 01:41:32;;;;;;;;;8.33;7.67;;;;;21.44;53.77;101728.21;110438;1268;18804;-67
2022/01/26 01:43:59;;;;;;;;;10.00;10.00;;;;;21.45;53.70;101732.30;110518;1267;18723;-69
2022/01/26 01:46:26;;;;;;;;;9.67;6.67;;;;;21.45;53.73;101729.58;110488;1267;19531;-67
2022/01/26 01:48:53;;;;;;;;;7.00;7.00;;;;;21.46;53.82;101727.88;110490;1267;19396;-66
2022/01/26 01:51:27;;;;;;;;;6.00;6.00;;;;;21.46;53.59;101731.33;110435;1267;20729;-68
2022/01/26 01:53:54;;;;;;;;;9.00;7.00;;;;;21.45;53.83;101724.16;110474;1267;21350;-69
2022/01/26 01:56:25;;;;;;;;;7.00;7.00;;;;;21.46;53.75;101718.98;110688;1267;18814;-68
2022/01/26 01:58:53;;;;;;;;;9.00;8.33;;;;;21.45;53.56;101725.01;110762;1267;18767;-66
2022/01/26 02:01:20;;;;;;;;;9.00;9.00;;;;;21.45;53.57;101726.67;110974;1261;20258;-65
2022/01/26 02:03:47;;;;;;;;;9.33;7.67;;;;;21.45;53.58;101724.10;110981;1262;18231;-68
2022/01/26 02:06:14;;;;;;;;;9.00;9.00;;;;;21.45;53.68;101720.38;110946;1262;18781;-66
2022/01/26 02:08:42;;;;;;;;;7.00;6.67;;;;;21.45;53.60;101721.20;110905;1262;19932;-69
2022/01/26 02:11:11;;;;;;;;;7.00;7.00;;;;;21.45;53.40;101721.19;110976;1262;18117;-68
2022/01/26 02:13:46;;;;;;;;;7.00;6.67;;;;;21.43;53.34;101718.73;110974;1262;19757;-67
2022/01/26 02:16:20;;;;;;;;;7.00;7.00;;;;;21.45;53.40;101720.14;110944;1262;18802;-67
2022/01/26 02:19:08;;;;;;;;;7.00;7.00;;;;;21.44;53.50;101719.29;110919;1262;19047;-67
2022/01/26 02:49:44;;;;;;;;;9.00;7.00;;;;;21.42;53.03;101717.20;109223;1276;19270;-66
2022/01/26 02:52:23;;;;;;;;;10.33;9.00;;;;;21.42;53.23;101721.59;109322;1277;18468;-67
2022/01/26 02:55:09;;;;;;;;;9.33;9.00;;;;;21.42;53.15;101719.71;109312;1277;18877;-67
2022/01/26 02:57:48;;;;;;;;;9.50;7.00;;;;;21.41;53.05;101715.48;109298;1277;19678;-67
2022/01/26 03:00:20;;;;;;;;;9.33;7.00;;;;;21.40;53.15;101709.06;109234;1274;21357;-67
2022/01/26 03:02:53;;;;;;;;;7.00;6.67;;;;;21.42;53.20;101713.38;109579;1273;19074;-68
2022/01/26 03:05:24;;;;;;;;;6.67;6.33;;;;;21.42;53.12;101709.90;110041;1267;18811;-66
2022/01/26 03:07:55;;;;;;;;;8.33;7.00;;;;;21.42;53.09;101713.03;110758;1267;18681;-69
2022/01/26 03:10:31;;;;;;;;;6.67;5.00;;;;;21.42;53.09;101714.98;110702;1267;21535;-67
2022/01/26 03:13:03;;;;;;;;;6.33;6.00;;;;;21.42;53.19;101710.27;110857;1262;22172;-67
2022/01/26 03:15:35;;;;;;;;;6.33;6.33;;;;;21.42;53.01;101711.16;111016;1262;21060;-66
2022/01/26 03:20:52;;;;;;;;;7.00;7.00;;;;;21.42;52.94;101713.17;110904;1262;20068;-67
2022/01/26 03:29:09;;;;;;;;;6.33;6.33;;;;;21.42;53.03;101717.23;110976;1262;18582;-68
2022/01/26 03:34:27;;;;;;;;;9.00;7.00;;;;;21.42;52.80;101716.14;110806;1262;19124;-67
2022/01/26 03:36:57;;;;;;;;;6.00;6.00;;;;;21.42;52.94;101709.77;110914;1262;18508;-67
2022/01/26 03:39:26;;;;;;;;;5.67;5.67;;;;;21.41;52.74;101711.86;111051;1260;22293;-67
2022/01/26 03:42:04;;;;;;;;;7.00;6.00;;;;;21.41;52.89;101709.69;111055;1262;18683;-68
2022/01/26 03:44:31;;;;;;;;;6.00;6.00;;;;;21.42;52.82;101707.20;111047;1261;21767;-67
2022/01/26 03:46:58;;;;;;;;;6.00;6.00;;;;;21.43;52.74;101708.02;111111;1262;18145;-67
2022/01/26 03:49:25;;;;;;;;;9.33;7.00;;;;;21.43;52.83;101706.05;110931;1261;22461;-66
2022/01/26 03:51:53;;;;;;;;;7.00;6.00;;;;;21.41;52.86;101700.89;110884;1262;21284;-67
2022/01/26 03:54:21;;;;;;;;;9.00;7.00;;;;;21.42;52.79;101702.84;110883;1263;18478;-67
2022/01/26 03:56:48;;;;;;;;;6.33;6.00;;;;;21.40;52.88;101696.14;110897;1262;20696;-67
2022/01/26 03:59:15;;;;;;;;;7.00;6.00;;;;;21.41;52.68;101696.94;110935;1263;19687;-67
2022/01/26 04:01:42;;;;;;;;;5.00;5.00;;;;;21.42;52.85;101697.63;110998;1262;18217;-65
2022/01/26 04:04:10;;;;;;;;;7.00;6.67;;;;;21.40;52.85;101697.55;110939;1262;19404;-68
2022/01/26 04:06:37;;;;;;;;;6.67;6.33;;;;;21.40;52.75;101698.84;110909;1262;19053;-66
2022/01/26 04:09:05;;;;;;;;;6.67;5.33;;;;;21.41;52.56;101696.02;110920;1264;18132;-68
2022/01/26 04:11:38;;;;;;;;;8.33;7.00;;;;;21.41;52.56;101694.38;110926;1262;18754;-67
2022/01/26 04:14:06;;;;;;;;;9.00;7.00;;;;;21.40;52.49;101689.55;110949;1262;18451;-67
2022/01/26 04:16:33;;;;;;;;;5.00;5.00;;;;;21.40;52.71;101687.20;110915;1262;18054;-67
2022/01/26 04:19:01;;;;;;;;;8.33;6.00;;;;;21.42;52.69;101686.45;110894;1263;18764;-67
2022/01/26 04:21:39;;;;;;;;;6.00;6.00;;;;;21.41;52.49;101685.80;110896;1262;19650;-68
2022/01/26 04:24:08;;;;;;;;;5.67;5.67;;;;;21.42;52.42;101687.98;110989;1262;21965;-68
2022/01/26 04:26:42;;;;;;;;;7.00;7.00;;;;;21.42;52.39;101692.61;110853;1262;19570;-68
2022/01/26 04:29:14;;;;;;;;;6.67;6.67;;;;;21.41;52.35;101688.35;110999;1262;18282;-67
2022/01/26 04:31:41;;;;;;;;;6.33;5.67;;;;;21.41;52.43;101685.86;110988;1262;18032;-67
2022/01/26 04:34:09;;;;;;;;;8.33;7.00;;;;;21.40;52.52;101686.08;110919;1262;18707;-67
2022/01/26 04:36:41;;;;;;;;;6.00;5.00;;;;;21.40;52.52;101681.05;110931;1264;18433;-67
2022/01/26 04:39:13;;;;;;;;;6.00;6.00;;;;;21.39;52.45;101685.34;110928;1262;17953;-68
2022/01/26 04:41:45;;;;;;;;;6.00;5.00;;;;;21.39;52.33;101685.08;111027;1262;18739;-69
2022/01/26 04:44:19;;;;;;;;;6.00;5.00;;;;;21.40;52.23;101686.85;110963;1262;22086;-67
2022/01/26 04:46:47;;;;;;;;;6.00;6.00;;;;;21.39;52.40;101681.45;110936;1262;18065;-67
2022/01/26 04:49:14;;;;;;;;;6.00;6.00;;;;;21.40;52.46;101675.43;110915;1261;18991;-67
2022/01/26 04:51:41;;;;;;;;;6.00;6.00;;;;;21.38;52.30;101672.66;111023;1262;20005;-69
2022/01/26 04:54:09;;;;;;;;;6.00;6.00;;;;;21.38;52.31;101672.66;110965;1261;19623;-67
2022/01/26 04:56:36;;;;;;;;;9.00;6.00;;;;;21.39;52.44;101669.50;110976;1261;19991;-67
2022/01/26 04:59:03;;;;;;;;;6.67;6.67;;;;;21.39;52.29;101667.17;110992;1262;19842;-67
2022/01/26 05:01:30;;;;;;;;;6.00;6.00;;;;;21.39;52.15;101667.73;111066;1261;18618;-69
2022/01/26 05:03:57;;;;;;;;;7.00;5.67;;;;;21.39;52.43;101667.00;111065;1261;21348;-68
2022/01/26 05:06:25;;;;;;;;;5.00;5.00;;;;;21.38;52.23;101657.25;110988;1261;20066;-68
2022/01/26 05:08:52;;;;;;;;;6.33;5.33;;;;;21.37;52.26;101654.02;111042;1261;22148;-68
2022/01/26 05:11:28;;;;;;;;;6.00;5.00;;;;;21.39;52.18;101652.24;111110;1261;18814;-70
2022/01/26 05:13:56;;;;;;;;;6.33;6.00;;;;;21.39;52.19;101652.75;111109;1261;18604;-69
2022/01/26 05:16:23;;;;;;;;;5.00;5.00;;;;;21.38;52.32;101650.64;111009;1261;18105;-68
2022/01/26 05:18:51;;;;;;;;;6.00;5.33;;;;;21.36;52.33;101640.75;111087;1261;19589;-69
2022/01/26 05:21:18;;;;;;;;;6.33;6.00;;;;;21.40;52.19;101648.51;111013;1261;18444;-69
2022/01/26 05:23:45;;;;;;;;;7.00;6.00;;;;;21.39;52.18;101648.35;110963;1262;18036;-68
2022/01/26 05:26:13;;;;;;;;;6.00;6.00;;;;;21.41;52.10;101644.42;111053;1261;18866;-67
2022/01/26 05:28:40;;;;;;;;;7.00;6.00;;;;;21.39;52.14;101646.55;111006;1262;19009;-68
2022/01/26 05:31:07;;;;;;;;;5.00;5.00;;;;;21.39;52.24;101639.02;111049;1262;18608;-67
2022/01/26 05:33:35;;;;;;;;;6.00;6.00;;;;;21.38;51.95;101631.20;110970;1261;20831;-68
2022/01/26 05:36:02;;;;;;;;;7.00;6.50;;;;;21.38;52.09;101629.77;111130;1261;18325;-67
2022/01/26 05:38:29;;;;;;;;;7.00;6.33;;;;;21.38;52.07;101634.65;111009;1261;18030;-69
2022/01/26 05:40:59;;;;;;;;;5.00;3.00;;;;;21.38;52.09;101634.17;111047;1261;19338;-67
2022/01/26 05:43:27;;;;;;;;;5.00;5.00;;;;;21.37;52.16;101632.94;111006;1261;18453;-69
2022/01/26 05:45:58;;;;;;;;;5.50;5.50;;;;;21.37;51.93;101627.12;110989;1261;19338;-67
2022/01/26 05:48:25;;;;;;;;;7.00;6.00;;;;;21.38;51.89;101626.20;110958;1261;20075;-67
2022/01/26 05:50:55;;;;;;;;;3.00;3.00;;;;;21.37;51.88;101627.05;111048;1261;18250;-67
2022/01/26 05:53:22;;;;;;;;;6.67;6.67;;;;;21.35;51.85;101626.25;111059;1261;18902;-67
2022/01/26 05:55:49;;;;;;;;;3.00;3.00;;;;;21.36;51.91;101625.08;111014;1261;18588;-68
2022/01/26 05:58:17;;;;;;;;;5.67;5.67;;;;;21.36;51.87;101622.20;111024;1261;19115;-68
2022/01/26 06:00:44;;;;;;;;;5.67;5.00;;;;;21.35;51.97;101621.17;111017;1261;18062;-68
2022/01/26 06:03:11;;;;;;;;;7.67;6.33;;;;;21.36;51.94;101616.02;110989;1260;19121;-67
2022/01/26 06:05:38;;;;;;;;;7.00;5.67;;;;;21.35;52.00;101615.16;111099;1259;20917;-66
2022/01/26 06:08:05;;;;;;;;;6.50;6.00;;;;;21.36;51.87;101610.58;111065;1261;17942;-65
2022/01/26 06:10:33;;;;;;;;;5.67;5.67;;;;;21.36;51.97;101615.83;110995;1261;19545;-66
2022/01/26 06:13:00;;;;;;;;;3.00;3.00;;;;;21.37;51.66;101617.30;111031;1261;20768;-70
2022/01/26 06:15:27;;;;;;;;;5.00;5.00;;;;;21.36;52.00;101615.45;111041;1261;20573;-68
2022/01/26 06:17:55;;;;;;;;;3.00;3.00;;;;;21.36;51.80;101614.90;110941;1261;20595;-66
2022/01/26 06:20:22;;;;;;;;;5.33;5.33;;;;;21.36;51.98;101612.89;111028;1261;18511;-66
2022/01/26 06:22:49;;;;;;;;;5.00;5.00;;;;;21.37;51.80;101607.04;111002;1261;18048;-67
2022/01/26 06:25:16;;;;;;;;;9.00;8.33;;;;;21.36;51.75;101604.35;110977;1261;20065;-67
2022/01/26 06:27:45;;;;;;;;;9.00;6.00;;;;;21.36;51.89;101606.38;111043;1261;21285;-68
2022/01/26 06:30:12;;;;;;;;;5.50;5.50;;;;;21.35;51.82;101603.01;111030;1261;18767;-67
2022/01/26 06:32:39;;;;;;;;;7.00;6.00;;;;;21.36;51.70;101605.98;111047;1261;20158;-67
2022/01/26 06:35:07;;;;;;;;;6.00;6.00;;;;;21.37;51.90;101602.09;111022;1261;18918;-67
2022/01/26 06:37:34;;;;;;;;;5.67;5.00;;;;;21.38;51.71;101603.11;110961;1261;18831;-67
2022/01/26 06:40:01;;;;;;;;;5.67;5.00;;;;;21.37;51.70;101600.05;110980;1261;18773;-66
2022/01/26 06:42:34;;;;;;;;;5.00;5.00;;;;;21.37;51.77;101594.97;110976;1262;18475;-68
2022/01/26 06:45:14;;;;;;;;;6.00;6.00;;;;;21.35;51.68;101595.88;111053;1261;18569;-71
2022/01/26 06:47:54;;;;;;;;;6.00;5.00;;;;;21.36;51.69;101591.32;110955;1261;18994;-69
2022/01/26 06:50:22;;;;;;;;;6.00;5.50;;;;;21.37;51.50;101590.50;111057;1261;18888;-67
2022/01/26 06:52:49;;;;;;;;;7.00;6.67;;;;;21.36;51.58;101588.95;111056;1261;18702;-67
2022/01/26 06:55:16;;;;;;;;;5.33;5.00;;;;;21.40;51.74;101594.55;110984;1260;19676;-67
2022/01/26 06:57:43;;;;;;;;;5.33;5.00;;;;;21.40;51.55;101588.52;111022;1260;18837;-67
2022/01/26 07:00:11;;;;;;;;;6.00;5.00;;;;;21.40;51.74;101590.50;110984;1261;18106;-67
2022/01/26 07:02:39;;;;;;;;;6.00;5.00;;;;;21.39;51.43;101586.56;110952;1261;19504;-67
2022/01/26 07:05:06;;;;;;;;;6.00;6.00;;;;;21.39;51.86;101589.89;111046;1261;18470;-67
2022/01/26 07:07:33;;;;;;;;;3.00;3.00;;;;;21.41;51.60;101589.67;110998;1261;18596;-66
2022/01/26 07:10:01;;;;;;;;;5.67;5.00;;;;;21.41;51.55;101588.94;110987;1261;18673;-69
2022/01/26 07:12:28;;;;;;;;;6.00;5.00;;;;;21.41;51.52;101590.91;111057;1260;18443;-67
2022/01/26 07:23:22;;;;;;;;;5.00;5.00;;;;;21.58;52.35;101585.98;110693;1267;18330;-67
2022/01/26 07:25:49;;;;;;;;;5.00;5.00;;;;;21.56;52.55;101581.83;110731;1267;20120;-67
2022/01/26 07:28:16;;;;;;;;;7.00;6.33;;;;;21.52;52.56;101575.16;110708;1267;19628;-68
2022/01/26 07:30:44;;;;;;;;;6.00;6.00;;;;;21.48;52.62;101570.04;110626;1267;18550;-68
2022/01/26 07:33:12;;;;;;;;;5.00;5.00;;;;;21.51;52.67;101579.11;110701;1266;20396;-67
2022/01/26 07:35:39;;;;;;;;;9.00;6.33;;;;;21.53;52.51;101574.86;110691;1267;19225;-68
2022/01/26 07:38:07;;;;;;;;;8.33;6.33;;;;;21.58;52.83;101571.98;110737;1267;17925;-69
2022/01/26 07:40:34;;;;;;;;;6.67;6.00;;;;;21.63;52.60;101568.10;110700;1267;19555;-68
2022/01/26 07:43:01;;;;;;;;;6.33;6.00;;;;;21.63;52.58;101565.48;110602;1267;18626;-69
2022/01/26 07:45:28;;;;;;;;;6.33;6.00;;;;;21.63;52.69;101575.03;110655;1266;19907;-68
2022/01/26 07:47:56;;;;;;;;;5.00;5.00;;;;;21.64;52.76;101565.77;110686;1267;20093;-66
2022/01/26 07:50:23;;;;;;;;;7.00;6.67;;;;;21.65;53.05;101568.37;110735;1265;18601;-68
2022/01/26 07:52:50;;;;;;;;;5.00;5.00;;;;;21.64;53.29;101563.83;110703;1265;18152;-68
2022/01/26 07:55:20;;;;;;;;;7.67;7.00;;;;;21.67;53.12;101559.67;110687;1265;18918;-68
2022/01/26 07:57:49;;;;;;;;;9.67;9.67;;;;;21.68;53.28;101556.98;110733;1260;18500;-67
2022/01/26 08:00:16;;;;;;;;;8.00;7.00;;;;;21.75;53.44;101553.85;111055;1259;18070;-68
2022/01/26 08:02:43;;;;;;;;;9.67;9.00;;;;;21.78;53.34;101557.00;111030;1260;21412;-68
2022/01/26 08:05:10;;;;;;;;;7.00;7.00;;;;;21.77;53.57;101555.95;111068;1260;19979;-68
2022/01/26 08:07:38;;;;;;;;;10.00;9.00;;;;;21.77;53.59;101554.38;110992;1260;18360;-69
2022/01/26 08:10:05;;;;;;;;;8.00;7.00;;;;;21.73;53.69;101556.05;110981;1261;18698;-68
2022/01/26 08:12:32;;;;;;;;;8.33;7.00;;;;;21.66;53.54;101553.91;111026;1261;18819;-69
2022/01/26 08:14:59;;;;;;;;;9.33;8.33;;;;;21.64;53.42;101554.16;110963;1260;18007;-67
2022/01/26 08:17:27;;;;;;;;;9.67;9.00;;;;;21.73;53.59;101552.20;110733;1260;19043;-70
2022/01/26 08:19:56;;;;;;;;;9.00;9.00;;;;;21.76;53.75;101550.41;111064;1259;18426;-69
2022/01/26 08:22:25;;;;;;;;;10.33;10.00;;;;;21.78;53.45;101548.64;111070;1259;20013;-69
2022/01/26 08:24:53;;;;;;;;;8.33;8.33;;;;;21.80;53.72;101547.52;110853;1260;18567;-70
2022/01/26 08:27:22;;;;;;;;;7.00;7.00;;;;;21.81;54.19;101550.29;110877;1261;20376;-71
2022/01/26 08:29:53;;;;;;;;;9.33;7.67;;;;;21.78;53.99;101546.47;110788;1262;19029;-70
2022/01/26 08:32:21;;;;;;;;;9.00;7.00;;;;;21.74;54.20;101549.59;111090;1259;19796;-67
2022/01/26 08:34:48;;;;;;;;;9.00;7.67;;;;;21.71;54.27;101545.35;111067;1260;18274;-68
2022/01/26 08:37:15;;;;;;;;;10.00;10.00;;;;;21.73;54.18;101549.71;111024;1260;19197;-69
2022/01/26 08:39:42;;;;;;;;;9.00;7.67;;;;;21.73;54.54;101548.25;111045;1259;18665;-70
2022/01/26 08:42:09;;;;;;;;;9.00;9.00;;;;;21.76;54.54;101550.28;111087;1260;21191;-69
2022/01/26 08:44:37;;;;;;;;;10.00;9.00;;;;;21.75;54.69;101547.86;110942;1262;18932;-68
2022/01/26 08:47:04;;;;;;;;;9.33;9.00;;;;;21.77;54.41;101550.73;110998;1262;20552;-70
2022/01/26 08:49:31;;;;;;;;;9.00;9.00;;;;;21.75;54.45;101549.61;110984;1260;21867;-70
2022/01/26 08:51:59;;;;;;;;;10.00;10.00;;;;;21.73;54.52;101544.77;111031;1260;17871;-68
2022/01/26 08:54:26;;;;;;;;;12.33;10.67;;;;;21.73;54.87;101542.78;110970;1260;18835;-68
2022/01/26 08:56:53;;;;;;;;;7.67;7.67;;;;;21.75;54.87;101538.70;111020;1261;18699;-68
2022/01/26 08:59:20;;;;;;;;;7.00;7.00;;;;;21.78;55.15;101538.59;111103;1260;18166;-66
2022/01/26 09:01:48;;;;;;;;;12.00;10.67;;;;;21.80;55.21;101535.10;111019;1259;18859;-69
2022/01/26 09:04:15;;;;;;;;;10.67;9.67;;;;;21.80;55.11;101530.73;110817;1260;23812;-68
2022/01/26 09:06:52;;;;;;;;;11.00;10.00;;;;;21.77;55.65;101525.96;110947;1261;18192;-68
2022/01/26 09:09:20;;;;;;;;;10.00;9.00;;;;;21.77;55.45;101528.28;110723;1262;21451;-67
2022/01/26 09:11:48;;;;;;;;;10.00;9.33;;;;;21.79;55.13;101526.85;110935;1261;18994;-67
2022/01/26 09:14:18;;;;;;;;;9.33;9.33;;;;;21.76;55.52;101529.55;110949;1261;18243;-67
2022/01/26 09:16:46;;;;;;;;;9.33;9.33;;;;;21.74;55.31;101525.15;110902;1261;18811;-67
2022/01/26 09:19:24;;;;;;;;;11.33;10.00;;;;;21.72;55.27;101528.67;110922;1260;21837;-67
2022/01/26 09:21:52;;;;;;;;;9.67;9.00;;;;;21.72;55.02;101530.69;110907;1261;22912;-67
2022/01/26 09:24:19;;;;;;;;;9.00;9.00;;;;;21.72;55.11;101532.52;110833;1261;20006;-69
2022/01/26 09:26:46;;;;;;;;;8.00;6.50;;;;;21.71;55.31;101527.36;110751;1260;18317;-70
2022/01/26 09:29:14;;;;;;;;;11.67;10.67;;;;;21.73;55.39;101528.05;111026;1260;19685;-69
2022/01/26 09:31:42;;;;;;;;;9.00;9.00;;;;;21.73;55.43;101529.39;110966;1261;22169;-69
2022/01/26 09:34:09;;;;;;;;;10.00;10.00;;;;;21.71;55.04;101527.54;110908;1261;24730;-67
2022/01/26 09:36:36;;;;;;;;;10.00;9.50;;;;;21.73;54.85;101530.58;110985;1260;19417;-68
2022/01/26 09:39:03;;;;;;;;;12.00;10.00;;;;;21.71;54.86;101527.13;110900;1260;18584;-67
2022/01/26 09:41:31;;;;;;;;;15.00;13.00;;;;;21.60;53.85;101522.88;111011;1261;18787;-66
2022/01/26 09:43:59;;;;;;;;;14.00;11.33;;;;;21.50;53.64;101526.10;111061;1262;18266;-68
2022/01/26 09:46:26;;;;;;;;;11.33;11.00;;;;;21.46;53.06;101517.46;111110;1259;19638;-69
2022/01/26 09:48:54;;;;;;;;;14.00;12.00;;;;;21.53;52.92;101517.13;111068;1260;18674;-67
2022/01/26 09:51:21;;;;;;;;;13.00;12.33;;;;;21.57;53.02;101514.61;110997;1260;18349;-67
2022/01/26 09:53:51;;;;;;;;;13.67;12.33;;;;;21.62;52.87;101514.53;110976;1260;22161;-67
2022/01/26 09:56:18;;;;;;;;;12.00;11.00;;;;;21.66;53.35;101512.47;111082;1259;20439;-68
2022/01/26 09:58:47;;;;;;;;;12.67;10.00;;;;;21.69;53.60;101511.23;111003;1260;22035;-67
2022/01/26 10:01:14;;;;;;;;;17.00;14.33;;;;;21.71;53.53;101508.98;111054;1261;24585;-68
2022/01/26 10:03:41;;;;;;;;;19.00;15.00;;;;;21.72;53.58;101509.48;110957;1261;19041;-68
2022/01/26 10:06:09;;;;;;;;;13.67;13.67;;;;;21.71;53.79;101509.77;110992;1261;18314;-68
2022/01/26 10:08:54;;;;;;;;;12.67;12.67;;;;;21.69;53.71;101509.52;110983;1260;18768;-69
2022/01/26 10:17:22;;;;;;;;;14.00;14.00;;;;;21.69;54.00;101508.10;110409;1267;21708;-66
2022/01/26 10:19:50;;;;;;;;;15.67;14.00;;;;;21.66;53.86;101506.85;110414;1268;19183;-67
2022/01/26 10:22:17;;;;;;;;;13.00;12.33;;;;;21.65;53.92;101505.48;110486;1268;20561;-67
2022/01/26 10:24:44;;;;;;;;;15.33;13.00;;;;;21.64;53.92;101507.55;110318;1267;21141;-68
2022/01/26 10:27:12;;;;;;;;;14.33;13.33;;;;;21.64;53.54;101506.83;110391;1268;18749;-66
2022/01/26 10:29:39;;;;;;;;;16.33;14.00;;;;;21.63;53.46;101509.11;110417;1268;18262;-68
2022/01/26 10:32:06;;;;;;;;;14.67;13.33;;;;;21.63;53.44;101503.86;110459;1268;18850;-67
2022/01/26 10:34:33;;;;;;;;;13.00;11.00;;;;;21.62;53.37;101500.02;110406;1268;18841;-68
2022/01/26 10:37:03;;;;;;;;;15.33;14.33;;;;;21.62;53.59;101502.90;110378;1268;18663;-66
2022/01/26 10:39:34;;;;;;;;;16.00;15.50;;;;;21.60;53.61;101503.42;110263;1268;18813;-67
2022/01/26 10:42:04;;;;;;;;;13.67;13.33;;;;;21.62;53.35;101497.96;110202;1268;22264;-68
2022/01/26 10:44:34;;;;;;;;;13.00;13.00;;;;;21.66;53.34;101500.10;110346;1268;21724;-67
2022/01/26 10:47:04;;;;;;;;;12.67;12.00;;;;;21.66;53.31;101498.76;110478;1268;19380;-69
2022/01/26 10:49:43;;;;;;;;;14.33;11.00;;;;;21.66;53.36;101496.48;110351;1268;19031;-68
2022/01/26 10:52:18;;;;;;;;;13.00;13.00;;;;;21.64;53.56;101495.79;110687;1262;19267;-67
2022/01/26 10:54:46;;;;;;;;;15.00;14.33;;;;;21.63;53.37;101489.50;110925;1262;20037;-66
2022/01/26 10:57:13;;;;;;;;;17.00;15.33;;;;;21.62;53.50;101482.71;110874;1262;21031;-67
2022/01/26 10:59:41;;;;;;;;;16.33;14.00;;;;;21.63;53.58;101482.55;110899;1262;22187;-68
2022/01/26 11:02:08;;;;;;;;;15.33;13.67;;;;;21.63;53.51;101478.19;110981;1262;18823;-67
2022/01/26 11:04:35;;;;;;;;;11.67;11.00;;;;;21.63;53.65;101474.91;110932;1262;18995;-67
2022/01/26 11:07:02;;;;;;;;;15.00;14.67;;;;;21.63;53.46;101473.27;110953;1262;18191;-68
2022/01/26 11:09:31;;;;;;;;;15.33;13.67;;;;;21.53;52.88;101467.04;110913;1262;19635;-67
2022/01/26 11:11:58;;;;;;;;;15.00;14.67;;;;;21.46;51.98;101468.19;110862;1262;18780;-68
2022/01/26 11:14:26;;;;;;;;;15.00;13.00;;;;;21.35;51.40;101468.52;110916;1262;18384;-67
2022/01/26 11:16:53;;;;;;;;;15.67;14.33;;;;;21.29;51.26;101458.05;110938;1262;18854;-68
2022/01/26 11:19:21;;;;;;;;;16.00;14.67;;;;;21.37;51.37;101456.63;110955;1262;18675;-69
2022/01/26 11:21:48;;;;;;;;;26.33;25.67;;;;;21.46;51.37;101456.16;110944;1262;18239;-69
2022/01/26 11:24:15;;;;;;;;;31.00;27.33;;;;;21.53;52.09;101450.36;110933;1262;18658;-70
2022/01/26 11:26:44;;;;;;;;;35.33;31.00;;;;;21.63;52.88;101446.44;110860;1262;18803;-68
2022/01/26 11:29:12;;;;;;;;;27.00;26.33;;;;;21.70;53.96;101446.91;110921;1262;18838;-68
2022/01/26 11:31:40;;;;;;;;;24.67;23.00;;;;;21.77;54.68;101448.70;110938;1262;19284;-67
2022/01/26 11:34:07;;;;;;;;;27.33;23.67;;;;;21.72;55.11;101450.48;110896;1262;18789;-67
2022/01/26 11:36:34;;;;;;;;;27.00;24.67;;;;;21.69;55.86;101454.67;110948;1262;19142;-69
2022/01/26 11:47:17;;;;;;;;;22.67;21.00;;;;;21.74;57.24;101450.22;110945;1262;18761;-69
2022/01/26 11:49:44;;;;;;;;;22.33;22.00;;;;;21.73;57.31;101450.32;111007;1260;19061;-68
2022/01/26 11:52:11;;;;;;;;;23.67;22.33;;;;;21.68;57.74;101455.25;111010;1260;18298;-69
2022/01/26 11:54:39;;;;;;;;;18.67;18.00;;;;;21.62;56.19;101452.67;111075;1259;18686;-69
2022/01/26 11:57:07;;;;;;;;;19.33;18.67;;;;;21.51;55.39;101454.78;111072;1261;19273;-67
2022/01/26 11:59:37;;;;;;;;;16.67;15.67;;;;;21.45;54.30;101457.99;111072;1261;18174;-69
2022/01/26 12:02:10;;;;;;;;;20.00;18.00;;;;;21.38;53.08;101455.23;111071;1260;18795;-69
2022/01/26 12:04:38;;;;;;;;;15.67;15.00;;;;;21.30;52.26;101454.41;110883;1260;23080;-68
2022/01/26 12:07:09;;;;;;;;;17.00;15.00;;;;;21.19;51.57;101449.19;111054;1261;19278;-68
2022/01/26 12:09:36;;;;;;;;;18.00;17.00;;;;;21.12;50.39;101448.92;110985;1261;18562;-67
2022/01/26 12:12:05;;;;;;;;;17.33;17.33;;;;;21.07;49.90;101444.53;111052;1261;20236;-70
2022/01/26 12:14:34;;;;;;;;;15.00;14.00;;;;;21.20;49.60;101441.11;110908;1261;18259;-69
2022/01/26 12:17:04;;;;;;;;;18.00;14.67;;;;;21.34;49.76;101445.10;110962;1261;20381;-69
2022/01/26 12:19:36;;;;;;;;;16.00;15.00;;;;;21.40;50.24;101440.31;110991;1261;20297;-68
2022/01/26 12:35:52;;;;;;;;;14.00;12.00;;;;;21.51;50.94;101423.86;111009;1261;18702;-70
2022/01/26 12:38:22;;;;;;;;;18.00;15.00;;;;;21.51;51.04;101423.41;110980;1261;23484;-68
2022/01/26 12:43:35;;;;;;;;;13.67;12.33;;;;;21.52;51.23;101420.26;110985;1261;18763;-69
2022/01/26 12:46:02;;;;;;;;;14.67;13.67;;;;;21.53;51.19;101418.04;110971;1261;18334;-68
2022/01/26 12:48:29;;;;;;;;;13.33;13.00;;;;;21.52;51.15;101414.28;110996;1261;19386;-69
2022/01/26 12:50:56;;;;;;;;;18.00;14.00;;;;;21.52;51.11;101413.39;110934;1262;20445;-69
2022/01/26 12:53:24;;;;;;;;;16.00;15.00;;;;;21.51;51.27;101407.63;111023;1261;18320;-69
2022/01/26 12:55:51;;;;;;;;;14.00;14.00;;;;;21.52;51.45;101408.98;110976;1261;19089;-68
2022/01/26 12:58:18;;;;;;;;;13.67;13.00;;;;;21.51;51.30;101405.09;110983;1261;25801;-71
2022/01/26 13:00:46;;;;;;;;;15.33;15.00;;;;;21.50;51.53;101408.40;111057;1261;18593;-69